sensor_id;sensor_type;location;lat;lon;timestamp;pressure;altitude;pressure_sealevel;temperature;humidity
55066;BME280;40964;42.114;24.220;2023-01-29T00:01:46;97959.38;;;2.27;86.61
55066;BME280;40964;42.114;24.220;2023-01-29T00:04:12;97959.69;;;2.32;87.14
55066;BME280;40964;42.114;24.220;2023-01-29T00:06:37;97962.97;;;2.34;87.46
55066;BME280;40964;42.114;24.220;2023-01-29T00:09:04;97966.22;;;2.36;87.25
55066;BME280;40964;42.114;24.220;2023-01-29T00:11:29;97952.25;;;2.29;85.92
55066;BME280;40964;42.114;24.220;2023-01-29T00:13:56;97966.22;;;2.36;86.36
55066;BME280;40964;42.114;24.220;2023-01-29T00:16:22;97976.44;;;2.38;86.00
55066;BME280;40964;42.114;24.220;2023-01-29T00:18:47;97972.69;;;2.32;87.19
55066;BME280;40964;42.114;24.220;2023-01-29T00:21:15;97977.88;;;2.32;87.00
55066;BME280;40964;42.114;24.220;2023-01-29T00:23:41;97978.19;;;2.21;87.83
55066;BME280;40964;42.114;24.220;2023-01-29T00:26:07;97980.78;;;2.21;88.66
55066;BME280;40964;42.114;24.220;2023-01-29T00:28:33;97985.16;;;2.20;89.80
55066;BME280;40964;42.114;24.220;2023-01-29T00:31:09;97993.56;;;2.14;89.83
55066;BME280;40964;42.114;24.220;2023-01-29T00:33:35;97987.72;;;2.12;90.62
55066;BME280;40964;42.114;24.220;2023-01-29T00:36:05;97990.81;;;2.08;92.22
55066;BME280;40964;42.114;24.220;2023-01-29T00:38:31;97985.09;;;2.04;92.44
55066;BME280;40964;42.114;24.220;2023-01-29T00:41:03;97991.28;;;2.11;91.20
55066;BME280;40964;42.114;24.220;2023-01-29T00:43:47;97991.94;;;2.13;90.40
55066;BME280;40964;42.114;24.220;2023-01-29T00:46:31;97987.22;;;2.09;89.97
55066;BME280;40964;42.114;24.220;2023-01-29T00:48:56;97992.25;;;2.10;90.33
55066;BME280;40964;42.114;24.220;2023-01-29T00:51:22;97992.41;;;2.09;86.49
55066;BME280;40964;42.114;24.220;2023-01-29T00:53:47;97990.47;;;2.11;89.54
55066;BME280;40964;42.114;24.220;2023-01-29T00:56:13;97992.78;;;2.22;88.23
55066;BME280;40964;42.114;24.220;2023-01-29T00:58:38;97978.66;;;2.16;88.27
55066;BME280;40964;42.114;24.220;2023-01-29T01:01:04;97988.75;;;2.27;88.38
55066;BME280;40964;42.114;24.220;2023-01-29T01:03:29;97996.16;;;2.22;88.74
55066;BME280;40964;42.114;24.220;2023-01-29T01:06:06;97993.75;;;2.21;85.97
55066;BME280;40964;42.114;24.220;2023-01-29T01:08:32;97993.56;;;2.14;86.32
55066;BME280;40964;42.114;24.220;2023-01-29T01:11:18;97997.31;;;2.20;87.00
55066;BME280;40964;42.114;24.220;2023-01-29T01:13:43;97991.31;;;2.19;84.70
55066;BME280;40964;42.114;24.220;2023-01-29T01:16:14;97998.13;;;2.20;83.88
55066;BME280;40964;42.114;24.220;2023-01-29T01:18:40;97999.13;;;2.27;84.29
55066;BME280;40964;42.114;24.220;2023-01-29T01:21:06;97998.16;;;2.28;83.72
55066;BME280;40964;42.114;24.220;2023-01-29T01:23:32;97998.31;;;2.27;82.83
55066;BME280;40964;42.114;24.220;2023-01-29T01:25:57;97996.34;;;2.21;83.95
55066;BME280;40964;42.114;24.220;2023-01-29T01:28:23;97991.97;;;2.21;82.57
55066;BME280;40964;42.114;24.220;2023-01-29T01:30:49;97996.16;;;2.22;83.81
55066;BME280;40964;42.114;24.220;2023-01-29T01:33:15;97995.53;;;2.20;84.99
55066;BME280;40964;42.114;24.220;2023-01-29T01:35:40;97999.41;;;2.16;83.89
55066;BME280;40964;42.114;24.220;2023-01-29T01:38:06;97999.75;;;2.21;84.53
55066;BME280;40964;42.114;24.220;2023-01-29T01:40:31;97998.13;;;2.20;84.57
55066;BME280;40964;42.114;24.220;2023-01-29T01:42:58;97993.09;;;2.19;85.38
55066;BME280;40964;42.114;24.220;2023-01-29T01:45:33;97994.72;;;2.20;87.06
55066;BME280;40964;42.114;24.220;2023-01-29T01:50:37;97991.97;;;2.21;84.89
55066;BME280;40964;42.114;24.220;2023-01-29T01:53:08;97995.19;;;2.23;84.31
55066;BME280;40964;42.114;24.220;2023-01-29T01:55:38;98006.09;;;2.27;84.70
55066;BME280;40964;42.114;24.220;2023-01-29T01:58:34;98000.41;;;2.32;84.71
55066;BME280;40964;42.114;24.220;2023-01-29T02:01:03;97980.59;;;2.22;83.60
55066;BME280;40964;42.114;24.220;2023-01-29T02:03:32;98000.56;;;2.30;83.64
55066;BME280;40964;42.114;24.220;2023-01-29T02:06:18;97996.84;;;2.33;84.26
55066;BME280;40964;42.114;24.220;2023-01-29T02:09:08;97998.00;;;2.38;85.18
55066;BME280;40964;42.114;24.220;2023-01-29T02:11:54;97994.78;;;2.44;86.50
55066;BME280;40964;42.114;24.220;2023-01-29T02:14:19;97986.50;;;2.49;87.13
55066;BME280;40964;42.114;24.220;2023-01-29T02:16:45;97996.88;;;2.57;87.42
55066;BME280;40964;42.114;24.220;2023-01-29T02:19:31;98003.69;;;2.50;88.61
55066;BME280;40964;42.114;24.220;2023-01-29T02:33:55;98013.56;;;2.38;87.08
55066;BME280;40964;42.114;24.220;2023-01-29T02:45:35;98016.97;;;2.31;83.50
55066;BME280;40964;42.114;24.220;2023-01-29T02:47:34;98022.34;;;2.37;83.42
55066;BME280;40964;42.114;24.220;2023-01-29T02:50:20;98016.16;;;2.30;83.12
55066;BME280;40964;42.114;24.220;2023-01-29T02:53:07;98016.59;;;2.17;84.51
55066;BME280;40964;42.114;24.220;2023-01-29T02:58:12;98012.88;;;2.20;84.12
55066;BME280;40964;42.114;24.220;2023-01-29T03:00:43;98013.03;;;2.18;84.38
55066;BME280;40964;42.114;24.220;2023-01-29T03:03:22;98019.66;;;2.13;84.34
55066;BME280;40964;42.114;24.220;2023-01-29T03:08:38;98022.41;;;2.11;85.15
55066;BME280;40964;42.114;24.220;2023-01-29T03:11:15;98024.22;;;2.19;84.70
55066;BME280;40964;42.114;24.220;2023-01-29T03:16:20;98021.78;;;2.17;84.46
55066;BME280;40964;42.114;24.220;2023-01-29T03:18:54;98021.59;;;2.11;84.51
55066;BME280;40964;42.114;24.220;2023-01-29T03:21:35;98024.69;;;2.14;85.11
55066;BME280;40964;42.114;24.220;2023-01-29T03:24:40;98022.75;;;2.08;84.38
55066;BME280;40964;42.114;24.220;2023-01-29T03:27:47;98020.97;;;2.09;83.44
55066;BME280;40964;42.114;24.220;2023-01-29T03:30:35;98028.78;;;2.17;81.97
55066;BME280;40964;42.114;24.220;2023-01-29T03:33:23;98031.81;;;2.12;82.07
55066;BME280;40964;42.114;24.220;2023-01-29T03:35:56;98040.44;;;2.21;81.57
55066;BME280;40964;42.114;24.220;2023-01-29T03:38:25;98026.63;;;2.12;83.11
55066;BME280;40964;42.114;24.220;2023-01-29T03:41:03;98041.22;;;2.13;84.58
55066;BME280;40964;42.114;24.220;2023-01-29T03:46:26;98045.09;;;2.01;87.97
55066;BME280;40964;42.114;24.220;2023-01-29T03:51:35;98043.75;;;1.89;87.59
55066;BME280;40964;42.114;24.220;2023-01-29T03:54:08;98050.06;;;1.94;88.23
55066;BME280;40964;42.114;24.220;2023-01-29T04:01:47;98045.81;;;1.85;88.30
55066;BME280;40964;42.114;24.220;2023-01-29T04:04:22;98052.97;;;1.91;87.59
55066;BME280;40964;42.114;24.220;2023-01-29T04:06:50;98060.97;;;2.06;85.81
55066;BME280;40964;42.114;24.220;2023-01-29T04:09:30;98059.72;;;2.10;85.56
55066;BME280;40964;42.114;24.220;2023-01-29T04:12:03;98062.78;;;2.14;84.99
55066;BME280;40964;42.114;24.220;2023-01-29T04:14:31;98064.94;;;2.18;84.23
55066;BME280;40964;42.114;24.220;2023-01-29T04:16:59;98061.19;;;2.21;85.16
55066;BME280;40964;42.114;24.220;2023-01-29T04:19:26;98063.00;;;2.20;84.71
55066;BME280;40964;42.114;24.220;2023-01-29T04:22:01;98067.22;;;2.30;83.20
55066;BME280;40964;42.114;24.220;2023-01-29T04:24:28;98074.00;;;2.22;83.36
55066;BME280;40964;42.114;24.220;2023-01-29T04:27:08;98075.78;;;2.22;82.77
55066;BME280;40964;42.114;24.220;2023-01-29T04:29:49;98058.94;;;2.18;82.10
55066;BME280;40964;42.114;24.220;2023-01-29T04:51:19;98068.31;;;2.11;83.17
55066;BME280;40964;42.114;24.220;2023-01-29T04:53:51;98064.09;;;2.10;83.37
55066;BME280;40964;42.114;24.220;2023-01-29T04:56:50;98069.75;;;2.13;83.32
55066;BME280;40964;42.114;24.220;2023-01-29T04:59:28;98080.47;;;2.10;84.14
55066;BME280;40964;42.114;24.220;2023-01-29T05:01:55;98077.38;;;2.15;84.66
55066;BME280;40964;42.114;24.220;2023-01-29T05:04:23;98073.81;;;2.08;87.20
55066;BME280;40964;42.114;24.220;2023-01-29T05:06:50;98080.47;;;2.10;86.15
55066;BME280;40964;42.114;24.220;2023-01-29T05:09:17;98077.53;;;2.13;83.80
55066;BME280;40964;42.114;24.220;2023-01-29T05:11:45;98085.03;;;2.24;83.19
55066;BME280;40964;42.114;24.220;2023-01-29T05:14:13;98091.38;;;2.22;82.86
55066;BME280;40964;42.114;24.220;2023-01-29T05:16:43;98093.34;;;2.28;83.00
55066;BME280;40964;42.114;24.220;2023-01-29T05:19:11;98086.81;;;2.24;82.72
55066;BME280;40964;42.114;24.220;2023-01-29T05:21:39;98094.13;;;2.20;81.97
55066;BME280;40964;42.114;24.220;2023-01-29T05:24:17;98093.31;;;2.20;83.76
55066;BME280;40964;42.114;24.220;2023-01-29T05:26:44;98088.25;;;2.10;85.40
55066;BME280;40964;42.114;24.220;2023-01-29T05:29:29;98048.19;;;1.79;85.25
55066;BME280;40964;42.114;24.220;2023-01-29T05:31:54;98101.72;;;2.14;85.66
55066;BME280;40964;42.114;24.220;2023-01-29T05:34:20;98106.28;;;2.20;87.27
55066;BME280;40964;42.114;24.220;2023-01-29T05:36:45;98121.56;;;2.31;86.60
55066;BME280;40964;42.114;24.220;2023-01-29T05:39:11;98107.59;;;2.24;86.86
55066;BME280;40964;42.114;24.220;2023-01-29T05:41:36;98105.31;;;2.21;85.42
55066;BME280;40964;42.114;24.220;2023-01-29T05:44:02;98119.81;;;2.40;84.36
55066;BME280;40964;42.114;24.220;2023-01-29T05:46:27;98128.28;;;2.50;82.66
55066;BME280;40964;42.114;24.220;2023-01-29T05:48:52;98127.84;;;2.54;82.92
55066;BME280;40964;42.114;24.220;2023-01-29T05:51:18;98129.47;;;2.64;84.94
55066;BME280;40964;42.114;24.220;2023-01-29T05:53:43;98124.94;;;2.66;84.13
55066;BME280;40964;42.114;24.220;2023-01-29T05:56:09;98127.06;;;2.62;84.90
55066;BME280;40964;42.114;24.220;2023-01-29T05:58:34;98128.16;;;2.60;84.39
55066;BME280;40964;42.114;24.220;2023-01-29T06:03:34;98142.75;;;2.52;82.92
55066;BME280;40964;42.114;24.220;2023-01-29T06:06:03;98140.50;;;2.58;83.91
55066;BME280;40964;42.114;24.220;2023-01-29T06:08:28;98140.16;;;2.52;84.05
55066;BME280;40964;42.114;24.220;2023-01-29T06:10:54;98151.72;;;2.66;84.21
55066;BME280;40964;42.114;24.220;2023-01-29T06:13:19;98154.63;;;2.63;84.81
55066;BME280;40964;42.114;24.220;2023-01-29T06:15:45;98151.22;;;2.63;85.47
55066;BME280;40964;42.114;24.220;2023-01-29T06:18:10;98158.03;;;2.64;86.83
55066;BME280;40964;42.114;24.220;2023-01-29T06:20:36;98163.06;;;2.65;85.79
55066;BME280;40964;42.114;24.220;2023-01-29T06:23:01;98167.00;;;2.77;86.30
55066;BME280;40964;42.114;24.220;2023-01-29T06:25:27;98160.97;;;2.69;89.49
55066;BME280;40964;42.114;24.220;2023-01-29T06:27:52;98174.28;;;2.66;91.92
55066;BME280;40964;42.114;24.220;2023-01-29T06:30:17;98168.47;;;2.72;91.74
55066;BME280;40964;42.114;24.220;2023-01-29T06:32:43;98176.41;;;2.78;89.05
55066;BME280;40964;42.114;24.220;2023-01-29T06:35:08;98177.25;;;2.87;90.27
55066;BME280;40964;42.114;24.220;2023-01-29T06:37:35;98183.78;;;2.91;90.71
55066;BME280;40964;42.114;24.220;2023-01-29T06:40:01;98175.50;;;2.96;90.76
55066;BME280;40964;42.114;24.220;2023-01-29T06:42:26;98184.81;;;3.06;90.25
55066;BME280;40964;42.114;24.220;2023-01-29T06:44:55;98190.81;;;3.07;91.04
55066;BME280;40964;42.114;24.220;2023-01-29T06:47:21;98184.81;;;3.15;91.00
55066;BME280;40964;42.114;24.220;2023-01-29T06:49:47;98193.59;;;3.22;89.36
55066;BME280;40964;42.114;24.220;2023-01-29T06:52:13;98189.47;;;3.03;89.04
55066;BME280;40964;42.114;24.220;2023-01-29T06:54:38;98190.84;;;3.15;89.53
55066;BME280;40964;42.114;24.220;2023-01-29T06:57:03;98199.31;;;3.33;89.13
55066;BME280;40964;42.114;24.220;2023-01-29T06:59:29;98202.72;;;3.42;89.59
55066;BME280;40964;42.114;24.220;2023-01-29T07:01:55;98202.56;;;3.52;88.80
55066;BME280;40964;42.114;24.220;2023-01-29T07:04:20;98208.59;;;3.52;88.92
55066;BME280;40964;42.114;24.220;2023-01-29T07:06:45;98216.88;;;3.56;89.82
55066;BME280;40964;42.114;24.220;2023-01-29T07:09:12;98210.38;;;3.52;89.56
55066;BME280;40964;42.114;24.220;2023-01-29T07:11:40;98208.22;;;3.31;88.05
55066;BME280;40964;42.114;24.220;2023-01-29T07:14:06;98204.16;;;3.20;87.91
55066;BME280;40964;42.114;24.220;2023-01-29T07:16:32;98210.00;;;3.22;88.01
55066;BME280;40964;42.114;24.220;2023-01-29T07:18:57;98204.66;;;3.24;89.63
55066;BME280;40964;42.114;24.220;2023-01-29T07:21:23;98205.97;;;3.36;89.76
55066;BME280;40964;42.114;24.220;2023-01-29T07:23:49;98209.72;;;3.41;87.79
55066;BME280;40964;42.114;24.220;2023-01-29T07:26:15;98216.16;;;3.21;87.18
55066;BME280;40964;42.114;24.220;2023-01-29T07:28:40;98217.47;;;3.17;89.45
55066;BME280;40964;42.114;24.220;2023-01-29T07:31:06;98221.19;;;3.15;91.74
55066;BME280;40964;42.114;24.220;2023-01-29T07:33:32;98219.41;;;3.23;92.87
55066;BME280;40964;42.114;24.220;2023-01-29T07:35:58;98230.28;;;3.10;92.67
55066;BME280;40964;42.114;24.220;2023-01-29T07:38:23;98204.63;;;3.07;93.62
55066;BME280;40964;42.114;24.220;2023-01-29T07:40:51;98226.41;;;3.15;93.76
55066;BME280;40964;42.114;24.220;2023-01-29T07:43:17;98220.72;;;3.27;93.47
55066;BME280;40964;42.114;24.220;2023-01-29T07:45:43;98231.78;;;3.29;91.48
55066;BME280;40964;42.114;24.220;2023-01-29T07:48:11;98227.59;;;2.86;94.30
55066;BME280;40964;42.114;24.220;2023-01-29T07:50:37;98226.75;;;2.77;96.36
55066;BME280;40964;42.114;24.220;2023-01-29T07:53:03;98224.13;;;2.77;97.23
55066;BME280;40964;42.114;24.220;2023-01-29T07:55:29;98230.94;;;2.70;97.91
55066;BME280;40964;42.114;24.220;2023-01-29T07:57:56;98229.81;;;2.73;97.88
55066;BME280;40964;42.114;24.220;2023-01-29T08:00:22;98242.00;;;2.72;100.00
55066;BME280;40964;42.114;24.220;2023-01-29T08:02:48;98242.03;;;2.80;100.00
55066;BME280;40964;42.114;24.220;2023-01-29T08:05:14;98239.31;;;2.56;100.00
55066;BME280;40964;42.114;24.220;2023-01-29T08:07:39;98236.06;;;2.54;100.00
55066;BME280;40964;42.114;24.220;2023-01-29T08:10:05;98248.88;;;2.55;100.00
55066;BME280;40964;42.114;24.220;2023-01-29T08:12:30;98238.94;;;2.51;100.00
55066;BME280;40964;42.114;24.220;2023-01-29T08:14:56;98251.31;;;2.57;100.00
55066;BME280;40964;42.114;24.220;2023-01-29T08:17:21;98253.41;;;2.53;100.00
55066;BME280;40964;42.114;24.220;2023-01-29T08:19:47;98259.69;;;2.43;100.00
55066;BME280;40964;42.114;24.220;2023-01-29T08:22:12;98257.94;;;2.51;100.00
55066;BME280;40964;42.114;24.220;2023-01-29T08:24:39;98256.00;;;2.53;100.00
55066;BME280;40964;42.114;24.220;2023-01-29T08:27:05;98261.06;;;2.55;100.00
55066;BME280;40964;42.114;24.220;2023-01-29T08:29:30;98258.34;;;2.65;100.00
55066;BME280;40964;42.114;24.220;2023-01-29T08:31:55;98257.38;;;2.66;100.00
55066;BME280;40964;42.114;24.220;2023-01-29T08:34:21;98262.41;;;2.67;100.00
55066;BME280;40964;42.114;24.220;2023-01-29T08:36:46;98256.56;;;2.65;100.00
55066;BME280;40964;42.114;24.220;2023-01-29T08:39:12;98258.78;;;2.60;100.00
55066;BME280;40964;42.114;24.220;2023-01-29T08:41:37;98269.22;;;2.68;100.00
55066;BME280;40964;42.114;24.220;2023-01-29T08:44:03;98264.84;;;2.69;100.00
55066;BME280;40964;42.114;24.220;2023-01-29T08:46:29;98262.50;;;2.58;100.00
55066;BME280;40964;42.114;24.220;2023-01-29T08:48:55;98260.44;;;2.61;100.00
55066;BME280;40964;42.114;24.220;2023-01-29T08:51:21;98269.53;;;2.65;100.00
55066;BME280;40964;42.114;24.220;2023-01-29T08:53:48;98277.50;;;2.64;100.00
55066;BME280;40964;42.114;24.220;2023-01-29T08:56:13;98273.97;;;2.73;100.00
55066;BME280;40964;42.114;24.220;2023-01-29T08:58:40;98266.72;;;2.84;100.00
55066;BME280;40964;42.114;24.220;2023-01-29T09:01:07;98276.91;;;2.78;100.00
55066;BME280;40964;42.114;24.220;2023-01-29T09:03:33;98274.50;;;2.84;100.00
55066;BME280;40964;42.114;24.220;2023-01-29T09:05:58;98271.81;;;3.02;100.00
55066;BME280;40964;42.114;24.220;2023-01-29T09:08:24;98275.53;;;3.00;99.62
55066;BME280;40964;42.114;24.220;2023-01-29T09:10:49;98247.56;;;2.85;100.00
55066;BME280;40964;42.114;24.220;2023-01-29T09:13:16;98280.78;;;3.08;98.48
55066;BME280;40964;42.114;24.220;2023-01-29T09:15:41;98274.59;;;3.09;98.00
55066;BME280;40964;42.114;24.220;2023-01-29T09:18:07;98261.59;;;3.01;97.52
55066;BME280;40964;42.114;24.220;2023-01-29T09:20:32;98265.69;;;3.11;95.89
55066;BME280;40964;42.114;24.220;2023-01-29T09:23:03;98268.31;;;3.20;96.79
55066;BME280;40964;42.114;24.220;2023-01-29T09:25:29;98272.53;;;3.21;96.55
55066;BME280;40964;42.114;24.220;2023-01-29T09:27:54;98265.56;;;3.29;96.68
55066;BME280;40964;42.114;24.220;2023-01-29T09:30:20;98271.47;;;3.48;95.19
55066;BME280;40964;42.114;24.220;2023-01-29T09:32:45;98259.59;;;3.45;93.85
55066;BME280;40964;42.114;24.220;2023-01-29T09:35:11;98261.56;;;3.51;93.42
55066;BME280;40964;42.114;24.220;2023-01-29T09:37:36;98253.91;;;3.58;90.46
55066;BME280;40964;42.114;24.220;2023-01-29T09:40:05;98250.34;;;3.59;92.95
55066;BME280;40964;42.114;24.220;2023-01-29T09:42:44;98256.34;;;3.59;87.26
55066;BME280;40964;42.114;24.220;2023-01-29T09:45:22;98241.09;;;3.64;88.88
55066;BME280;40964;42.114;24.220;2023-01-29T09:47:52;98236.06;;;3.63;85.87
55066;BME280;40964;42.114;24.220;2023-01-29T09:52:58;98236.06;;;3.71;84.36
55066;BME280;40964;42.114;24.220;2023-01-29T09:55:27;98234.28;;;3.80;82.91
55066;BME280;40964;42.114;24.220;2023-01-29T09:57:57;98230.88;;;3.87;82.90
55066;BME280;40964;42.114;24.220;2023-01-29T10:25:02;98217.16;;;4.34;78.55
55066;BME280;40964;42.114;24.220;2023-01-29T10:27:34;98206.91;;;4.33;75.27
55066;BME280;40964;42.114;24.220;2023-01-29T10:30:07;98196.94;;;4.44;74.89
55066;BME280;40964;42.114;24.220;2023-01-29T10:32:35;98199.34;;;4.54;76.75
55066;BME280;40964;42.114;24.220;2023-01-29T10:35:22;98191.53;;;4.54;74.09
55066;BME280;40964;42.114;24.220;2023-01-29T10:37:52;98196.72;;;4.62;76.71
55066;BME280;40964;42.114;24.220;2023-01-29T10:40:40;98193.16;;;4.55;77.13
55066;BME280;40964;42.114;24.220;2023-01-29T10:43:23;98200.63;;;4.58;80.08
55066;BME280;40964;42.114;24.220;2023-01-29T10:54:13;98176.06;;;4.61;72.93
55066;BME280;40964;42.114;24.220;2023-01-29T10:56:51;98179.47;;;4.61;72.72
55066;BME280;40964;42.114;24.220;2023-01-29T11:01:50;98170.44;;;4.80;72.80
55066;BME280;40964;42.114;24.220;2023-01-29T11:04:15;98170.06;;;4.83;72.36
55066;BME280;40964;42.114;24.220;2023-01-29T11:06:41;98170.38;;;4.88;70.76
55066;BME280;40964;42.114;24.220;2023-01-29T11:11:40;98164.00;;;5.22;70.59
55066;BME280;40964;42.114;24.220;2023-01-29T11:14:44;98162.88;;;5.39;68.90
55066;BME280;40964;42.114;24.220;2023-01-29T11:17:19;98157.25;;;5.73;69.88
55066;BME280;40964;42.114;24.220;2023-01-29T11:19:47;98157.06;;;5.75;69.02
55066;BME280;40964;42.114;24.220;2023-01-29T11:22:15;98150.06;;;5.75;67.16
55066;BME280;40964;42.114;24.220;2023-01-29T11:24:42;98151.22;;;5.73;68.27
55066;BME280;40964;42.114;24.220;2023-01-29T11:27:41;98151.69;;;5.76;68.67
55066;BME280;40964;42.114;24.220;2023-01-29T11:30:15;98138.31;;;5.56;67.80
55066;BME280;40964;42.114;24.220;2023-01-29T11:32:49;98138.31;;;5.56;69.12
55066;BME280;40964;42.114;24.220;2023-01-29T11:37:45;98132.63;;;5.53;70.12
55066;BME280;40964;42.114;24.220;2023-01-29T11:42:42;98133.81;;;5.50;69.02
55066;BME280;40964;42.114;24.220;2023-01-29T11:45:27;98124.63;;;5.54;68.32
55066;BME280;40964;42.114;24.220;2023-01-29T11:47:57;98124.81;;;5.53;69.08
55066;BME280;40964;42.114;24.220;2023-01-29T11:50:31;98125.13;;;5.35;67.52
55066;BME280;40964;42.114;24.220;2023-01-29T11:52:58;98132.50;;;5.31;67.85
55066;BME280;40964;42.114;24.220;2023-01-29T11:55:29;98129.69;;;5.33;69.07
55066;BME280;40964;42.114;24.220;2023-01-29T11:58:28;98127.38;;;5.38;70.55
55066;BME280;40964;42.114;24.220;2023-01-29T12:00:56;98130.56;;;5.48;70.42
55066;BME280;40964;42.114;24.220;2023-01-29T12:03:41;98126.91;;;5.57;69.53
55066;BME280;40964;42.114;24.220;2023-01-29T12:06:21;98125.50;;;5.47;70.67
55066;BME280;40964;42.114;24.220;2023-01-29T12:08:59;98116.25;;;5.44;70.04
55066;BME280;40964;42.114;24.220;2023-01-29T12:11:30;98124.69;;;5.46;69.39
55066;BME280;40964;42.114;24.220;2023-01-29T12:13:59;98118.59;;;5.54;67.77
55066;BME280;40964;42.114;24.220;2023-01-29T12:16:43;98106.22;;;5.70;70.08
55066;BME280;40964;42.114;24.220;2023-01-29T12:19:38;98113.72;;;5.88;67.93
55066;BME280;40964;42.114;24.220;2023-01-29T12:24:53;98103.50;;;5.49;68.31
55066;BME280;40964;42.114;24.220;2023-01-29T12:29:58;98101.94;;;5.40;68.21
55066;BME280;40964;42.114;24.220;2023-01-29T12:32:38;98095.38;;;5.44;66.93
55066;BME280;40964;42.114;24.220;2023-01-29T12:38:05;98094.47;;;5.14;69.24
55066;BME280;40964;42.114;24.220;2023-01-29T12:40:46;98091.97;;;5.44;69.98
55066;BME280;40964;42.114;24.220;2023-01-29T12:43:23;98082.13;;;5.68;68.04
55066;BME280;40964;42.114;24.220;2023-01-29T12:45:53;98085.78;;;5.59;67.83
55066;BME280;40964;42.114;24.220;2023-01-29T12:48:26;98085.63;;;5.76;67.72
55066;BME280;40964;42.114;24.220;2023-01-29T12:50:54;98084.19;;;5.58;64.57
55066;BME280;40964;42.114;24.220;2023-01-29T12:53:39;98085.78;;;5.74;67.55
55066;BME280;40964;42.114;24.220;2023-01-29T12:56:17;98091.13;;;5.81;66.44
55066;BME280;40964;42.114;24.220;2023-01-29T12:58:48;98086.31;;;5.55;64.58
55066;BME280;40964;42.114;24.220;2023-01-29T13:06:11;98093.72;;;5.05;66.14
55066;BME280;40964;42.114;24.220;2023-01-29T13:08:48;98089.59;;;4.88;65.98
55066;BME280;40964;42.114;24.220;2023-01-29T13:11:25;98098.28;;;4.80;67.79
55066;BME280;40964;42.114;24.220;2023-01-29T13:16:47;98095.63;;;5.11;68.51
55066;BME280;40964;42.114;24.220;2023-01-29T13:19:23;98088.09;;;5.17;67.81
55066;BME280;40964;42.114;24.220;2023-01-29T13:21:53;98096.38;;;5.20;68.14
55066;BME280;40964;42.114;24.220;2023-01-29T13:24:23;98110.53;;;5.26;69.21
55066;BME280;40964;42.114;24.220;2023-01-29T13:26:49;98101.59;;;5.20;67.24
55066;BME280;40964;42.114;24.220;2023-01-29T13:29:23;98118.94;;;5.13;67.74
55066;BME280;40964;42.114;24.220;2023-01-29T13:31:50;98104.16;;;5.05;67.83
55066;BME280;40964;42.114;24.220;2023-01-29T13:34:29;98106.63;;;4.99;68.90
55066;BME280;40964;42.114;24.220;2023-01-29T13:37:01;98109.13;;;4.92;69.97
55066;BME280;40964;42.114;24.220;2023-01-29T13:39:29;98105.25;;;4.88;71.51
55066;BME280;40964;42.114;24.220;2023-01-29T13:41:56;98107.66;;;4.90;71.16
55066;BME280;40964;42.114;24.220;2023-01-29T13:44:24;98102.09;;;4.93;72.74
55066;BME280;40964;42.114;24.220;2023-01-29T13:47:10;98106.09;;;4.80;71.20
55066;BME280;40964;42.114;24.220;2023-01-29T13:49:51;98104.66;;;4.78;70.72
55066;BME280;40964;42.114;24.220;2023-01-29T13:52:34;98107.38;;;4.84;70.88
55066;BME280;40964;42.114;24.220;2023-01-29T14:07:56;98123.47;;;4.57;72.75
55066;BME280;40964;42.114;24.220;2023-01-29T14:10:24;98120.09;;;4.48;70.93
55066;BME280;40964;42.114;24.220;2023-01-29T14:18:47;98116.88;;;4.38;72.15
55066;BME280;40964;42.114;24.220;2023-01-29T14:21:34;98119.81;;;4.43;73.92
55066;BME280;40964;42.114;24.220;2023-01-29T14:24:17;98125.31;;;4.40;73.40
55066;BME280;40964;42.114;24.220;2023-01-29T14:26:46;98110.22;;;4.36;71.02
55066;BME280;40964;42.114;24.220;2023-01-29T14:34:25;98130.88;;;4.37;72.17
55066;BME280;40964;42.114;24.220;2023-01-29T14:36:59;98137.59;;;4.32;71.69
55066;BME280;40964;42.114;24.220;2023-01-29T14:39:33;98143.13;;;4.28;71.91
55066;BME280;40964;42.114;24.220;2023-01-29T14:42:02;98143.25;;;4.35;73.75
55066;BME280;40964;42.114;24.220;2023-01-29T14:49:58;98147.50;;;4.36;72.58
55066;BME280;40964;42.114;24.220;2023-01-29T14:52:41;98138.63;;;4.14;72.89
55066;BME280;40964;42.114;24.220;2023-01-29T14:55:23;98147.06;;;4.16;73.57
55066;BME280;40964;42.114;24.220;2023-01-29T14:57:51;98151.47;;;4.16;73.42
55066;BME280;40964;42.114;24.220;2023-01-29T15:00:24;98149.06;;;3.98;73.92
55066;BME280;40964;42.114;24.220;2023-01-29T15:02:52;98156.06;;;3.97;74.68
55066;BME280;40964;42.114;24.220;2023-01-29T15:05:20;98165.47;;;4.07;75.67
55066;BME280;40964;42.114;24.220;2023-01-29T15:07:52;98161.28;;;3.89;77.28
55066;BME280;40964;42.114;24.220;2023-01-29T15:15:31;98161.75;;;3.93;79.28
55066;BME280;40964;42.114;24.220;2023-01-29T15:18:14;98162.72;;;4.00;79.24
55066;BME280;40964;42.114;24.220;2023-01-29T15:20:42;98170.34;;;4.02;78.26
55066;BME280;40964;42.114;24.220;2023-01-29T15:23:32;98166.94;;;3.93;77.81
55066;BME280;40964;42.114;24.220;2023-01-29T15:26:04;98165.66;;;3.89;76.68
55066;BME280;40964;42.114;24.220;2023-01-29T15:28:32;98168.91;;;3.83;75.60
55066;BME280;40964;42.114;24.220;2023-01-29T15:31:03;98167.13;;;3.75;75.06
55066;BME280;40964;42.114;24.220;2023-01-29T15:33:31;98170.72;;;3.66;75.84
55066;BME280;40964;42.114;24.220;2023-01-29T15:35:59;98164.88;;;3.64;75.76
55066;BME280;40964;42.114;24.220;2023-01-29T15:38:25;98162.91;;;3.58;75.45
55066;BME280;40964;42.114;24.220;2023-01-29T15:41:01;98172.50;;;3.57;75.83
55066;BME280;40964;42.114;24.220;2023-01-29T15:43:34;98167.97;;;3.51;75.20
55066;BME280;40964;42.114;24.220;2023-01-29T15:46:27;98165.03;;;3.46;75.34
55066;BME280;40964;42.114;24.220;2023-01-29T15:48:56;98180.16;;;3.42;75.22
55066;BME280;40964;42.114;24.220;2023-01-29T15:51:25;98183.84;;;3.40;75.71
55066;BME280;40964;42.114;24.220;2023-01-29T15:54:02;98183.84;;;3.32;75.13
55066;BME280;40964;42.114;24.220;2023-01-29T15:58:56;98177.50;;;3.18;76.70
55066;BME280;40964;42.114;24.220;2023-01-29T16:01:27;98190.34;;;3.20;77.44